Time;durP1;ratioP1;P1;durP2;ratioP2;P2;SDS_P1;SDS_P2;PMS_P1;PMS_P2;Temp;Humidity;BMP_temperature;BMP_pressure;BME280_temperature;BME280_humidity;BME280_pressure;Samples;Min_cycle;Max_cycle;Signal;HPM_P1;HPM_P2
2021/08/31 00:00:36;;;;;;;7.07;2.97;;;13.30;94.00;;;;;;6310311;22;20027;-74
2021/08/31 00:03:04;;;;;;;7.13;2.83;;;13.20;94.00;;;;;;6286536;22;20015;-73
2021/08/31 00:05:38;;;;;;;8.50;2.72;;;13.20;94.00;;;;;;6315917;22;20076;-74
2021/08/31 00:08:06;;;;;;;6.20;3.22;;;13.10;94.00;;;;;;6315939;22;20035;-74
2021/08/31 00:10:35;;;;;;;7.88;3.05;;;13.10;94.10;;;;;;6314805;22;20043;-74
2021/08/31 00:13:03;;;;;;;5.40;2.58;;;13.10;94.10;;;;;;6316504;22;20022;-72
2021/08/31 00:15:30;;;;;;;6.22;2.80;;;13.00;94.10;;;;;;6314296;22;20019;-73
2021/08/31 00:18:00;;;;;;;8.07;2.90;;;12.90;94.10;;;;;;6313053;22;20015;-73
2021/08/31 00:20:31;;;;;;;8.10;3.03;;;12.90;94.10;;;;;;6314740;22;20034;-74
2021/08/31 00:22:59;;;;;;;7.65;3.38;;;12.80;94.20;;;;;;6315803;22;20021;-74
2021/08/31 00:25:26;;;;;;;5.93;2.90;;;12.80;94.20;;;;;;6315658;22;20026;-74
2021/08/31 00:27:55;;;;;;;6.88;3.33;;;12.80;94.40;;;;;;6315813;22;20019;-74
2021/08/31 00:30:22;;;;;;;8.15;2.65;;;12.80;94.40;;;;;;6315947;22;20249;-74
2021/08/31 00:32:50;;;;;;;7.75;2.67;;;12.70;94.40;;;;;;6315304;22;20014;-74
2021/08/31 00:35:17;;;;;;;11.50;3.53;;;12.70;94.50;;;;;;6314728;22;20019;-73
2021/08/31 00:37:45;;;;;;;8.93;3.40;;;12.70;94.50;;;;;;6315022;22;20054;-73
2021/08/31 00:40:14;;;;;;;8.57;3.35;;;12.70;94.50;;;;;;6314578;22;20031;-73
2021/08/31 00:42:41;;;;;;;6.50;3.00;;;12.80;94.60;;;;;;6312286;22;20303;-73
2021/08/31 00:45:11;;;;;;;9.52;3.47;;;12.90;94.60;;;;;;6313876;22;20322;-76
2021/08/31 00:47:39;;;;;;;8.40;3.75;;;12.90;94.60;;;;;;6313292;22;20023;-73
2021/08/31 00:50:07;;;;;;;9.95;3.22;;;13.00;94.70;;;;;;6286587;22;20152;-73
2021/08/31 00:52:37;;;;;;;7.50;2.63;;;13.00;94.50;;;;;;6313593;22;20193;-73
2021/08/31 00:55:04;;;;;;;7.03;3.28;;;13.00;94.40;;;;;;6314290;22;20023;-72
2021/08/31 00:57:32;;;;;;;6.75;2.67;;;13.00;94.30;;;;;;6313564;22;20026;-73
2021/08/31 00:59:59;;;;;;;5.57;2.80;;;13.00;94.30;;;;;;6312907;22;20215;-74
2021/08/31 01:02:28;;;;;;;5.75;2.60;;;13.00;94.20;;;;;;6307943;22;20025;-74
2021/08/31 01:04:56;;;;;;;5.90;2.72;;;13.00;94.10;;;;;;6312228;22;20248;-74
2021/08/31 01:07:25;;;;;;;7.13;2.72;;;12.90;94.00;;;;;;6313602;22;20376;-73
2021/08/31 01:09:53;;;;;;;5.28;2.58;;;12.90;93.90;;;;;;6313360;22;20020;-74
2021/08/31 01:12:21;;;;;;;7.10;2.88;;;12.90;94.00;;;;;;6312691;22;20037;-74
2021/08/31 01:14:51;;;;;;;10.73;3.08;;;12.80;94.10;;;;;;6276782;22;20244;-73
2021/08/31 01:17:18;;;;;;;5.35;2.13;;;12.80;94.00;;;;;;1213366;22;10002020;-73
2021/08/31 01:19:50;;;;;;;6.43;2.50;;;12.70;94.10;;;;;;6315988;22;20037;-73
2021/08/31 01:22:18;;;;;;;6.05;3.08;;;12.70;94.10;;;;;;6315183;22;20057;-74
2021/08/31 01:24:46;;;;;;;5.63;2.78;;;12.70;94.20;;;;;;6317436;22;20033;-74
2021/08/31 01:27:15;;;;;;;6.05;2.70;;;12.70;94.20;;;;;;6317896;22;20073;-72
2021/08/31 01:29:43;;;;;;;10.13;2.80;;;12.70;94.30;;;;;;6317255;22;20023;-72
2021/08/31 01:32:11;;;;;;;6.63;2.42;;;12.70;94.20;;;;;;6317609;22;20029;-73
2021/08/31 01:34:38;;;;;;;6.55;3.05;;;12.70;94.10;;;;;;6316297;22;20238;-73
2021/08/31 01:37:13;;;;;;;7.05;3.15;;;12.70;94.00;;;;;;6316917;22;20087;-74
2021/08/31 01:39:41;;;;;;;6.18;3.20;;;12.70;94.00;;;;;;6316412;22;20087;-73
2021/08/31 01:42:08;;;;;;;6.03;2.97;;;12.70;94.00;;;;;;6316745;22;20298;-73
2021/08/31 01:44:38;;;;;;;5.57;2.78;;;12.70;94.00;;;;;;6316849;22;20045;-73
2021/08/31 01:47:10;;;;;;;5.00;2.72;;;12.80;94.00;;;;;;6317577;22;20019;-74
2021/08/31 01:49:38;;;;;;;7.10;3.20;;;12.80;94.00;;;;;;6316778;22;20075;-74
2021/08/31 01:52:06;;;;;;;4.57;2.65;;;12.90;93.90;;;;;;6316696;22;20228;-73
2021/08/31 01:54:33;;;;;;;8.10;2.88;;;12.90;93.70;;;;;;6316743;22;20019;-73
2021/08/31 01:57:03;;;;;;;6.68;2.85;;;12.90;93.60;;;;;;6290093;22;20015;-74
2021/08/31 01:59:34;;;;;;;8.10;2.60;;;12.90;93.60;;;;;;6316560;22;20253;-73
2021/08/31 02:02:03;;;;;;;10.88;2.60;;;12.90;93.50;;;;;;6285946;22;20034;-74
2021/08/31 02:04:32;;;;;;;6.03;2.65;;;13.00;93.50;;;;;;6317025;22;20033;-74
2021/08/31 02:07:00;;;;;;;7.35;3.15;;;13.00;93.50;;;;;;6317098;22;20022;-73
2021/08/31 02:09:28;;;;;;;8.18;3.70;;;13.10;93.40;;;;;;6287739;22;20247;-73
2021/08/31 02:11:55;;;;;;;6.05;3.30;;;13.10;93.30;;;;;;6315772;22;20021;-73
2021/08/31 02:14:23;;;;;;;6.40;3.42;;;13.20;93.20;;;;;;6316570;22;20034;-74
2021/08/31 02:16:50;;;;;;;9.18;3.42;;;13.20;93.20;;;;;;6316041;22;20361;-74
2021/08/31 02:19:19;;;;;;;9.88;3.80;;;13.30;93.20;;;;;;6316906;22;20226;-74
2021/08/31 02:21:46;;;;;;;5.30;3.10;;;13.30;93.00;;;;;;6316153;22;20061;-74
2021/08/31 02:24:16;;;;;;;8.65;3.15;;;13.30;93.00;;;;;;6313845;22;20027;-74
2021/08/31 02:26:43;;;;;;;5.55;2.78;;;13.40;93.00;;;;;;6286013;22;20055;-73
2021/08/31 02:29:11;;;;;;;7.53;3.83;;;13.40;93.00;;;;;;6315478;22;20314;-74
2021/08/31 02:31:43;;;;;;;6.78;2.90;;;13.50;92.70;;;;;;6315427;22;20041;-73
2021/08/31 02:34:11;;;;;;;8.45;3.88;;;13.40;92.60;;;;;;6314391;22;20101;-74
2021/08/31 02:36:40;;;;;;;6.15;3.03;;;13.50;92.70;;;;;;6313982;22;20059;-74
2021/08/31 02:39:07;;;;;;;6.95;3.22;;;13.50;92.70;;;;;;6316030;22;20026;-74
2021/08/31 02:41:35;;;;;;;8.45;3.72;;;13.50;92.70;;;;;;6287330;22;20065;-73
2021/08/31 02:44:03;;;;;;;9.38;3.38;;;13.60;92.70;;;;;;6314408;22;20027;-73
2021/08/31 02:46:30;;;;;;;9.15;3.80;;;13.60;92.60;;;;;;6314847;22;20015;-73
2021/08/31 02:48:58;;;;;;;9.07;3.70;;;13.60;92.50;;;;;;6315041;22;20015;-73
2021/08/31 02:51:29;;;;;;;13.45;3.58;;;13.60;92.60;;;;;;6315105;22;20077;-73
2021/08/31 02:53:58;;;;;;;6.20;3.10;;;13.60;92.40;;;;;;6315074;22;20023;-73
2021/08/31 02:56:26;;;;;;;7.10;3.33;;;13.70;92.40;;;;;;6315040;22;20023;-74
2021/08/31 02:58:56;;;;;;;8.05;3.88;;;13.70;92.30;;;;;;6315864;22;20355;-75
2021/08/31 03:01:32;;;;;;;7.75;3.38;;;13.70;92.30;;;;;;6311700;22;20027;-75
2021/08/31 03:04:01;;;;;;;7.80;3.70;;;13.80;92.40;;;;;;6317074;22;20029;-75
2021/08/31 03:06:33;;;;;;;7.45;3.72;;;13.80;92.20;;;;;;6316852;22;20019;-73
2021/08/31 03:09:04;;;;;;;6.85;3.25;;;13.80;92.30;;;;;;6287362;22;20045;-74
2021/08/31 03:11:32;;;;;;;6.80;3.35;;;13.80;92.10;;;;;;6316353;22;20019;-74
2021/08/31 03:13:59;;;;;;;6.97;2.97;;;13.90;92.20;;;;;;6315322;22;20078;-73
2021/08/31 03:16:26;;;;;;;8.02;3.30;;;13.80;91.90;;;;;;6316384;22;20019;-73
2021/08/31 03:18:54;;;;;;;7.50;3.35;;;13.90;92.30;;;;;;6317251;22;20023;-74
2021/08/31 03:21:23;;;;;;;6.90;3.17;;;13.90;92.10;;;;;;6315067;22;20028;-74
2021/08/31 03:23:50;;;;;;;5.78;3.25;;;13.90;92.20;;;;;;6317251;22;20018;-75
2021/08/31 03:26:19;;;;;;;6.80;3.15;;;13.90;92.20;;;;;;6312739;22;20027;-73
2021/08/31 03:28:47;;;;;;;6.78;3.17;;;13.90;92.00;;;;;;6287948;22;20101;-75
2021/08/31 03:31:14;;;;;;;5.65;2.83;;;13.90;92.00;;;;;;6314738;22;20074;-75
2021/08/31 03:33:44;;;;;;;7.28;3.20;;;13.90;92.10;;;;;;6315851;22;20019;-74
2021/08/31 03:36:11;;;;;;;6.25;2.92;;;13.90;92.00;;;;;;6316303;22;20015;-74
2021/08/31 03:38:40;;;;;;;6.35;3.05;;;13.70;92.10;;;;;;6288652;22;20020;-74
2021/08/31 03:41:10;;;;;;;7.80;3.25;;;13.70;92.50;;;;;;6316051;22;20066;-74
2021/08/31 03:43:40;;;;;;;;;;;13.70;92.40;;;;;;6315542;22;20015;-74
2021/08/31 03:46:09;;;;;;;5.85;2.55;;;13.70;92.40;;;;;;6289031;22;19926;-75
2021/08/31 03:48:37;;;;;;;5.50;2.90;;;13.70;92.50;;;;;;6315373;22;20084;-75
2021/08/31 03:51:07;;;;;;;9.90;3.08;;;13.60;92.30;;;;;;6288468;22;20015;-74
2021/08/31 03:53:34;;;;;;;7.35;3.50;;;13.60;92.50;;;;;;6315769;22;20025;-75
2021/08/31 03:56:02;;;;;;;7.75;3.38;;;13.50;92.60;;;;;;6316164;22;20023;-75
2021/08/31 03:58:31;;;;;;;6.20;2.95;;;13.40;92.60;;;;;;6315669;22;20034;-74
2021/08/31 04:01:03;;;;;;;7.95;3.30;;;13.40;92.80;;;;;;6309770;22;20015;-74
2021/08/31 04:03:30;;;;;;;7.38;3.47;;;13.30;92.90;;;;;;6314040;22;20319;-74
2021/08/31 04:05:58;;;;;;;9.50;3.42;;;13.20;93.00;;;;;;6314430;22;20331;-73
2021/08/31 04:08:25;;;;;;;6.53;3.40;;;13.20;93.30;;;;;;6314006;22;20069;-74
2021/08/31 04:10:52;;;;;;;7.57;3.63;;;13.20;93.40;;;;;;6315329;22;20039;-73
2021/08/31 04:13:20;;;;;;;6.30;3.58;;;13.10;93.60;;;;;;6315113;22;20019;-73
2021/08/31 04:15:48;;;;;;;5.90;3.08;;;13.10;93.60;;;;;;6312821;22;20038;-73
2021/08/31 04:18:17;;;;;;;8.43;4.00;;;13.10;93.70;;;;;;6286698;22;20097;-73
2021/08/31 04:20:44;;;;;;;9.25;3.67;;;13.00;93.90;;;;;;6285656;22;20251;-73
2021/08/31 04:23:12;;;;;;;6.28;3.47;;;13.10;93.90;;;;;;6314546;22;20077;-72
2021/08/31 04:25:43;;;;;;;8.88;3.70;;;13.00;93.90;;;;;;6287496;22;20019;-73
2021/08/31 04:28:11;;;;;;;6.93;3.42;;;12.90;93.90;;;;;;6314576;22;20023;-74
2021/08/31 04:30:38;;;;;;;11.55;3.53;;;12.90;94.00;;;;;;6313681;22;20022;-74
2021/08/31 04:33:05;;;;;;;6.32;3.50;;;13.00;94.00;;;;;;6287223;22;20015;-74
2021/08/31 04:35:34;;;;;;;7.90;3.35;;;13.00;94.00;;;;;;6313700;22;20019;-73
2021/08/31 04:38:05;;;;;;;8.77;3.63;;;13.10;93.90;;;;;;6315480;22;20011;-73
2021/08/31 04:40:35;;;;;;;7.53;3.38;;;13.10;93.90;;;;;;6314963;22;20302;-75
2021/08/31 04:43:03;;;;;;;6.50;3.40;;;13.20;93.80;;;;;;6309500;22;20071;-74
2021/08/31 04:45:31;;;;;;;6.07;2.78;;;13.10;93.70;;;;;;6284430;22;20290;-73
2021/08/31 04:47:59;;;;;;;7.68;3.10;;;13.20;93.70;;;;;;6285095;22;20016;-74
2021/08/31 04:50:26;;;;;;;8.90;3.78;;;13.30;93.70;;;;;;6284360;22;20219;-74
2021/08/31 04:52:55;;;;;;;7.22;3.35;;;13.30;93.40;;;;;;6285268;22;20323;-74
2021/08/31 04:55:23;;;;;;;7.97;3.55;;;13.40;93.30;;;;;;6285367;22;20047;-72
2021/08/31 04:57:50;;;;;;;8.20;3.38;;;13.40;93.30;;;;;;6285288;22;20024;-73
2021/08/31 05:00:18;;;;;;;7.72;3.72;;;13.50;93.00;;;;;;6281165;22;20016;-74
2021/08/31 05:02:45;;;;;;;6.43;3.63;;;13.50;93.00;;;;;;6286050;22;20016;-73
2021/08/31 05:05:13;;;;;;;6.18;3.45;;;13.60;93.10;;;;;;6285212;22;20046;-73
2021/08/31 05:07:41;;;;;;;9.45;3.50;;;13.50;92.60;;;;;;6285601;22;20027;-75
2021/08/31 05:10:10;;;;;;;7.85;3.50;;;13.40;93.00;;;;;;6284043;22;20031;-73
2021/08/31 05:12:39;;;;;;;11.30;3.70;;;13.40;93.00;;;;;;6285908;22;20027;-73
2021/08/31 05:15:08;;;;;;;8.90;3.97;;;13.30;92.90;;;;;;6283281;22;20024;-73
2021/08/31 05:17:36;;;;;;;8.43;3.17;;;13.40;92.90;;;;;;6285891;22;20027;-73
2021/08/31 05:20:05;;;;;;;7.22;3.90;;;13.40;93.10;;;;;;6285947;22;20024;-73
2021/08/31 05:22:33;;;;;;;10.70;3.67;;;13.40;92.80;;;;;;6286805;22;20067;-72
2021/08/31 05:25:01;;;;;;;10.45;3.70;;;13.50;92.90;;;;;;6287912;22;20027;-73
2021/08/31 05:27:33;;;;;;;7.00;3.85;;;13.60;92.80;;;;;;6286239;22;20023;-73
2021/08/31 05:30:00;;;;;;;6.57;3.63;;;13.70;92.50;;;;;;6285263;22;20016;-73
2021/08/31 05:32:30;;;;;;;13.07;4.32;;;13.80;92.20;;;;;;6284665;22;20103;-74
2021/08/31 05:35:00;;;;;;;8.93;4.18;;;13.90;92.20;;;;;;6283937;22;20016;-74
2021/08/31 05:37:29;;;;;;;9.52;3.75;;;13.90;92.00;;;;;;6283008;22;20035;-75
2021/08/31 05:39:58;;;;;;;8.07;4.10;;;13.90;91.70;;;;;;6284310;22;20026;-74
2021/08/31 05:42:25;;;;;;;8.18;3.25;;;13.90;91.70;;;;;;6282895;22;20389;-74
2021/08/31 05:44:54;;;;;;;8.77;3.90;;;13.90;91.70;;;;;;6282264;22;20303;-75
2021/08/31 05:47:21;;;;;;;7.65;3.53;;;14.10;91.70;;;;;;6284131;22;20215;-74
2021/08/31 05:49:52;;;;;;;7.10;3.50;;;14.10;91.50;;;;;;6283105;22;20042;-74
2021/08/31 05:52:19;;;;;;;6.68;3.53;;;14.20;91.00;;;;;;6283498;22;20027;-75
2021/08/31 05:54:47;;;;;;;9.02;4.10;;;14.10;91.10;;;;;;6283661;22;20016;-75
2021/08/31 05:57:14;;;;;;;7.88;3.45;;;14.20;91.10;;;;;;6281646;22;20326;-75
2021/08/31 05:59:42;;;;;;;6.75;3.90;;;14.30;91.00;;;;;;6282352;22;20024;-73
2021/08/31 06:02:11;;;;;;;7.55;3.15;;;14.40;90.60;;;;;;6277392;22;20024;-74
2021/08/31 06:04:39;;;;;;;6.60;3.93;;;14.50;90.60;;;;;;6284343;22;20354;-75
2021/08/31 06:07:11;;;;;;;9.88;4.05;;;14.60;90.50;;;;;;6282723;22;20844;-75
2021/08/31 06:09:40;;;;;;;7.25;4.35;;;14.70;89.90;;;;;;6284437;22;20034;-76
2021/08/31 06:12:09;;;;;;;10.60;3.72;;;14.80;90.20;;;;;;6285454;22;20019;-74
2021/08/31 06:14:39;;;;;;;7.88;3.67;;;14.90;89.90;;;;;;6282006;22;20028;-74
2021/08/31 06:17:07;;;;;;;6.90;3.95;;;15.10;89.30;;;;;;6285212;22;20058;-74
2021/08/31 06:19:36;;;;;;;10.32;3.83;;;15.10;89.20;;;;;;6282567;22;20111;-74
2021/08/31 06:22:05;;;;;;;7.07;3.80;;;15.30;88.90;;;;;;6283426;22;20335;-74
2021/08/31 06:24:32;;;;;;;7.47;3.67;;;15.20;88.30;;;;;;6285378;22;20034;-74
2021/08/31 06:27:00;;;;;;;7.40;3.35;;;15.20;88.50;;;;;;6286215;22;20278;-73
2021/08/31 06:29:35;;;;;;;7.15;3.88;;;15.30;88.30;;;;;;6284083;22;20016;-75
2021/08/31 06:32:02;;;;;;;8.23;4.53;;;15.40;88.10;;;;;;6285548;22;20051;-74
2021/08/31 06:34:30;;;;;;;10.90;4.40;;;15.50;87.00;;;;;;6284891;22;20058;-74
2021/08/31 06:36:59;;;;;;;9.65;4.05;;;15.40;86.60;;;;;;6285746;22;20034;-74
2021/08/31 06:39:26;;;;;;;8.40;4.00;;;15.60;87.20;;;;;;6285569;22;20210;-74
2021/08/31 06:41:57;;;;;;;10.25;4.30;;;15.70;87.10;;;;;;6286284;22;20015;-74
2021/08/31 06:44:24;;;;;;;8.18;4.03;;;15.70;86.10;;;;;;6288470;22;20051;-74
2021/08/31 06:46:54;;;;;;;7.88;4.25;;;15.70;86.30;;;;;;6316971;22;20046;-74
2021/08/31 06:49:22;;;;;;;8.38;3.90;;;15.90;85.60;;;;;;6315509;22;20023;-74
2021/08/31 06:51:49;;;;;;;9.48;3.78;;;15.80;84.50;;;;;;6317401;22;20206;-74
2021/08/31 06:54:18;;;;;;;9.25;3.72;;;15.90;84.70;;;;;;6317075;22;20072;-74
2021/08/31 06:56:46;;;;;;;8.30;4.10;;;15.90;84.20;;;;;;6316286;22;20077;-74
2021/08/31 06:59:13;;;;;;;6.90;4.00;;;15.90;84.40;;;;;;6315536;22;20031;-74
2021/08/31 07:01:41;;;;;;;5.90;3.20;;;15.90;83.30;;;;;;6312163;22;20022;-73
2021/08/31 07:04:08;;;;;;;10.57;4.38;;;15.70;82.70;;;;;;6317405;22;20019;-75
2021/08/31 07:06:36;;;;;;;6.93;3.53;;;15.70;83.00;;;;;;6316203;22;20237;-74
2021/08/31 07:09:05;;;;;;;7.32;3.83;;;15.70;83.20;;;;;;6317278;22;20015;-74
2021/08/31 07:11:33;;;;;;;9.65;3.92;;;15.80;82.30;;;;;;6316122;22;20249;-74
2021/08/31 07:14:01;;;;;;;7.10;3.58;;;15.80;82.90;;;;;;6317107;22;20037;-73
2021/08/31 07:16:28;;;;;;;6.53;3.53;;;16.00;83.10;;;;;;6316836;22;20072;-73
2021/08/31 07:18:56;;;;;;;7.05;3.20;;;16.00;80.90;;;;;;6316823;22;20023;-72
2021/08/31 07:21:23;;;;;;;7.88;3.78;;;16.00;80.90;;;;;;6310678;22;20027;-74
2021/08/31 07:23:51;;;;;;;8.18;3.80;;;16.10;81.50;;;;;;6313578;22;20023;-74
2021/08/31 07:26:18;;;;;;;9.70;3.72;;;16.20;81.70;;;;;;6313102;22;20031;-74
2021/08/31 07:28:47;;;;;;;6.68;3.28;;;16.30;80.60;;;;;;6287722;22;20023;-74
2021/08/31 07:31:16;;;;;;;8.35;3.35;;;16.10;80.00;;;;;;6314425;22;20019;-73
2021/08/31 07:33:44;;;;;;;6.43;3.40;;;16.30;80.50;;;;;;6313985;22;20034;-73
2021/08/31 07:36:12;;;;;;;6.35;3.33;;;16.50;79.60;;;;;;6314503;22;20045;-74
2021/08/31 07:38:39;;;;;;;5.95;2.95;;;16.70;80.00;;;;;;6314196;22;20015;-75
2021/08/31 07:41:07;;;;;;;5.88;2.90;;;16.80;77.60;;;;;;6313903;22;20311;-74
2021/08/31 07:43:34;;;;;;;5.40;2.97;;;16.80;78.10;;;;;;6313552;22;20331;-75
2021/08/31 07:46:06;;;;;;;7.57;3.40;;;16.60;77.20;;;;;;6314896;22;20011;-73
2021/08/31 07:48:33;;;;;;;9.82;2.97;;;16.70;78.00;;;;;;6314567;22;20333;-74
2021/08/31 07:51:02;;;;;;;6.90;3.28;;;16.90;76.70;;;;;;6313221;22;20023;-73
2021/08/31 07:53:30;;;;;;;7.13;2.90;;;17.00;76.90;;;;;;6314538;22;20249;-73
2021/08/31 07:56:00;;;;;;;6.57;3.28;;;17.10;76.30;;;;;;6314036;22;20021;-73
2021/08/31 07:58:28;;;;;;;7.95;2.53;;;17.20;75.10;;;;;;6314656;22;20019;-74
2021/08/31 08:00:55;;;;;;;5.28;2.85;;;17.40;77.00;;;;;;6312788;22;20084;-75
2021/08/31 08:03:24;;;;;;;8.35;3.17;;;17.90;75.10;;;;;;6316150;22;20188;-75
2021/08/31 08:05:51;;;;;;;6.68;3.05;;;18.10;75.20;;;;;;6315317;22;20209;-75
2021/08/31 08:08:19;;;;;;;5.68;2.75;;;18.10;73.90;;;;;;6315798;22;20380;-75
2021/08/31 08:10:46;;;;;;;5.90;2.95;;;18.30;73.60;;;;;;6315972;22;20023;-73
2021/08/31 08:13:14;;;;;;;6.75;3.33;;;18.30;72.10;;;;;;6316340;22;20034;-73
2021/08/31 08:15:42;;;;;;;5.22;2.97;;;18.30;71.60;;;;;;6316157;22;20023;-74
2021/08/31 08:18:10;;;;;;;5.90;2.70;;;18.20;72.00;;;;;;6316239;22;20015;-74
2021/08/31 08:20:42;;;;;;;5.95;3.05;;;18.50;72.50;;;;;;6289249;22;20027;-74
2021/08/31 08:23:13;;;;;;;7.53;3.15;;;18.30;73.20;;;;;;6315138;22;20131;-73
2021/08/31 08:25:41;;;;;;;7.10;2.53;;;18.30;73.30;;;;;;6290290;22;20057;-75
2021/08/31 08:28:08;;;;;;;7.18;3.47;;;18.30;72.70;;;;;;6315397;22;20023;-73
2021/08/31 08:30:36;;;;;;;6.47;3.00;;;18.50;73.60;;;;;;6314739;22;20061;-74
2021/08/31 08:33:03;;;;;;;5.57;2.53;;;18.40;73.00;;;;;;6315943;22;20355;-73
2021/08/31 08:35:34;;;;;;;6.53;3.13;;;18.60;72.80;;;;;;6289764;22;20027;-73
2021/08/31 08:38:03;;;;;;;5.78;3.08;;;18.60;72.00;;;;;;6316506;22;20022;-73
2021/08/31 08:40:35;;;;;;;10.13;3.38;;;18.60;72.10;;;;;;6288608;22;20022;-74
2021/08/31 08:43:03;;;;;;;6.47;2.85;;;18.80;71.40;;;;;;6289193;22;20019;-74
2021/08/31 08:45:30;;;;;;;6.03;2.78;;;19.00;71.10;;;;;;6316543;22;20193;-74
2021/08/31 08:47:58;;;;;;;5.93;2.70;;;18.90;70.20;;;;;;6316214;22;20035;-74
2021/08/31 08:50:26;;;;;;;5.88;2.65;;;19.10;71.50;;;;;;6314727;22;20375;-74
2021/08/31 08:52:53;;;;;;;7.10;3.17;;;19.20;70.10;;;;;;6316221;22;20318;-74
2021/08/31 08:55:25;;;;;;;7.95;2.85;;;19.20;70.50;;;;;;6288650;22;20065;-75
2021/08/31 08:57:53;;;;;;;5.22;2.65;;;19.10;69.40;;;;;;6316094;22;20023;-74
2021/08/31 09:00:20;;;;;;;8.48;3.25;;;19.30;70.40;;;;;;6310368;22;20030;-74
2021/08/31 09:02:48;;;;;;;5.85;3.10;;;19.60;70.30;;;;;;6315729;22;20061;-74
2021/08/31 09:05:31;;;;;;;5.25;2.45;;;19.60;69.60;;;;;;6314591;22;20181;-73
2021/08/31 09:08:05;;;;;;;6.32;3.20;;;19.40;68.70;;;;;;6314189;22;20323;-74
2021/08/31 09:10:35;;;;;;;7.00;2.95;;;19.60;69.60;;;;;;6313693;22;20019;-74
2021/08/31 09:13:02;;;;;;;7.00;3.10;;;19.70;68.10;;;;;;6314517;22;20310;-74
2021/08/31 09:15:33;;;;;;;7.72;3.22;;;19.70;68.40;;;;;;6314660;22;20058;-74
2021/08/31 09:18:16;;;;;;;5.35;3.13;;;19.90;68.00;;;;;;6315189;22;20039;-74
2021/08/31 09:20:47;;;;;;;6.38;3.10;;;19.60;68.60;;;;;;6313358;22;20033;-74
2021/08/31 09:23:20;;;;;;;5.30;2.60;;;19.60;68.40;;;;;;6315651;22;20035;-74
2021/08/31 09:25:51;;;;;;;5.20;2.70;;;19.80;68.60;;;;;;6314121;22;20060;-74
2021/08/31 09:28:21;;;;;;;5.75;2.90;;;19.80;68.90;;;;;;6285978;22;20270;-74
2021/08/31 09:31:02;;;;;;;7.30;2.88;;;19.90;68.80;;;;;;6313654;22;20027;-73
2021/08/31 09:33:31;;;;;;;8.68;2.53;;;20.30;68.70;;;;;;6313319;22;20065;-74
2021/08/31 09:36:06;;;;;;;5.85;2.80;;;20.30;68.20;;;;;;6315881;22;20023;-73
2021/08/31 09:38:45;;;;;;;9.00;2.83;;;20.30;68.10;;;;;;6316129;22;20027;-73
2021/08/31 09:41:36;;;;;;;5.57;2.67;;;20.30;68.20;;;;;;6291927;22;20323;-73
2021/08/31 09:44:07;;;;;;;7.93;2.67;;;20.50;67.20;;;;;;6318379;22;20090;-74
2021/08/31 09:46:48;;;;;;;7.22;2.55;;;20.40;66.60;;;;;;6317750;22;20375;-74
2021/08/31 09:49:25;;;;;;;6.35;2.90;;;20.30;66.40;;;;;;6316689;22;20031;-74
2021/08/31 09:52:11;;;;;;;7.07;2.63;;;20.50;66.70;;;;;;6316770;22;20019;-73
2021/08/31 09:54:40;;;;;;;5.85;2.60;;;20.50;66.60;;;;;;6316947;22;20022;-74
2021/08/31 09:57:31;;;;;;;5.07;2.00;;;20.40;66.50;;;;;;6317711;22;20246;-74
2021/08/31 10:00:04;;;;;;;4.65;2.22;;;20.30;67.40;;;;;;6317553;22;20027;-73
2021/08/31 10:02:33;;;;;;;4.90;2.72;;;20.40;67.30;;;;;;6316836;22;20019;-74
2021/08/31 10:05:03;;;;;;;4.97;2.65;;;20.60;67.10;;;;;;6318288;22;20023;-73
2021/08/31 10:07:33;;;;;;;6.82;2.70;;;21.10;65.90;;;;;;6316764;22;20033;-74
2021/08/31 10:10:01;;;;;;;4.78;2.70;;;21.10;64.80;;;;;;6317157;22;20030;-74
2021/08/31 10:12:36;;;;;;;6.55;2.90;;;21.10;65.00;;;;;;6289481;22;20019;-73
2021/08/31 10:15:04;;;;;;;6.43;2.95;;;21.20;64.90;;;;;;6317250;22;20063;-73
2021/08/31 10:17:36;;;;;;;8.50;3.22;;;21.30;65.10;;;;;;6316766;22;20064;-74
2021/08/31 10:20:06;;;;;;;5.38;3.22;;;21.40;64.40;;;;;;6317305;22;20038;-72
2021/08/31 10:22:36;;;;;;;8.20;3.05;;;21.50;64.10;;;;;;6314349;22;20023;-73
2021/08/31 10:25:03;;;;;;;;;;;21.50;64.30;;;;;;6318301;22;20023;-72
2021/08/31 10:27:36;;;;;;;6.78;3.50;;;22.20;63.10;;;;;;6315683;22;19918;-74
2021/08/31 10:30:37;;;;;;;6.15;2.80;;;22.30;62.30;;;;;;6289827;22;20068;-74
2021/08/31 10:33:33;;;;;;;7.22;3.50;;;22.30;62.10;;;;;;6168029;23;20035;-73
2021/08/31 10:36:07;;;;;;;7.55;3.45;;;22.60;60.20;;;;;;6193014;23;20061;-73
2021/08/31 10:38:47;;;;;;;6.00;2.83;;;23.00;59.90;;;;;;6278829;22;20027;-73
2021/08/31 10:41:47;;;;;;;4.80;2.47;;;23.00;59.30;;;;;;6315998;22;20160;-74
2021/08/31 10:44:40;;;;;;;4.82;2.60;;;22.80;59.20;;;;;;6314597;22;20023;-74
2021/08/31 10:47:29;;;;;;;5.63;2.88;;;22.40;60.70;;;;;;6314313;22;20027;-74
2021/08/31 10:50:18;;;;;;;5.68;3.20;;;21.90;61.30;;;;;;6315939;22;20262;-74
2021/08/31 10:52:52;;;;;;;6.20;3.42;;;21.60;62.30;;;;;;6315734;22;20042;-73
2021/08/31 10:55:45;;;;;;;8.20;2.70;;;21.40;62.70;;;;;;6315647;22;20168;-73
2021/08/31 10:58:47;;;;;;;6.72;3.35;;;21.30;63.80;;;;;;6315205;22;20077;-73
2021/08/31 11:01:20;;;;;;;5.60;2.75;;;21.10;64.70;;;;;;6286919;22;20065;-73
2021/08/31 11:03:48;;;;;;;7.65;3.00;;;21.00;63.70;;;;;;6314361;22;20214;-73
2021/08/31 11:06:22;;;;;;;6.57;2.90;;;21.00;64.30;;;;;;6314781;22;20019;-73
2021/08/31 11:09:19;;;;;;;7.00;2.70;;;21.40;64.00;;;;;;6314371;22;20046;-73
2021/08/31 11:12:10;;;;;;;6.05;2.63;;;22.10;62.40;;;;;;6314520;22;20038;-74
2021/08/31 11:14:53;;;;;;;8.95;3.28;;;24.10;57.40;;;;;;6315342;22;24621;-74
2021/08/31 11:17:34;;;;;;;6.95;3.42;;;25.50;52.70;;;;;;6314520;22;20025;-75
2021/08/31 11:20:26;;;;;;;7.75;3.20;;;25.60;51.90;;;;;;6286772;22;20076;-74
2021/08/31 11:22:55;;;;;;;5.85;3.03;;;26.60;49.00;;;;;;6309602;22;20034;-73
2021/08/31 11:25:29;;;;;;;5.38;2.92;;;27.30;47.00;;;;;;6316361;22;20030;-74
2021/08/31 11:27:59;;;;;;;5.18;2.85;;;28.20;43.20;;;;;;6316288;22;20019;-73
2021/08/31 11:30:28;;;;;;;6.03;3.13;;;28.80;42.80;;;;;;6316525;22;20033;-73
2021/08/31 11:33:19;;;;;;;7.03;2.90;;;27.70;44.10;;;;;;6317024;22;20011;-72
2021/08/31 11:35:47;;;;;;;6.00;2.58;;;26.80;46.80;;;;;;6316013;22;20025;-75
2021/08/31 11:38:15;;;;;;;6.47;3.00;;;26.10;47.30;;;;;;6316835;22;20039;-73
2021/08/31 11:40:43;;;;;;;7.18;2.92;;;26.00;48.70;;;;;;6317021;22;20031;-74
2021/08/31 11:43:10;;;;;;;5.30;3.10;;;27.80;43.90;;;;;;6316709;22;20031;-74
2021/08/31 11:45:40;;;;;;;4.47;2.78;;;29.50;41.50;;;;;;6315564;22;20057;-75
2021/08/31 11:48:13;;;;;;;5.70;2.47;;;30.50;39.20;;;;;;6317866;22;20023;-74
2021/08/31 11:50:42;;;;;;;4.32;2.33;;;29.90;39.20;;;;;;6314972;22;20019;-73
2021/08/31 11:53:17;;;;;;;5.20;2.70;;;29.80;39.80;;;;;;6317234;22;20061;-74
2021/08/31 11:55:58;;;;;;;5.43;3.00;;;29.30;40.80;;;;;;6315675;22;20122;-73
2021/08/31 11:58:26;;;;;;;6.18;2.58;;;31.60;36.90;;;;;;6316150;22;20117;-73
2021/08/31 12:00:54;;;;;;;5.77;2.77;;;30.80;38.00;;;;;;6310441;22;20375;-74
2021/08/31 12:03:24;;;;;;;5.00;2.58;;;30.60;37.20;;;;;;6315197;22;20803;-73
2021/08/31 12:05:59;;;;;;;5.47;2.60;;;31.30;36.80;;;;;;6316304;22;20057;-73
2021/08/31 12:08:33;;;;;;;4.93;2.70;;;29.60;39.40;;;;;;6315623;22;20033;-73
2021/08/31 12:11:02;;;;;;;4.95;2.47;;;28.80;40.70;;;;;;6316553;22;20124;-73
2021/08/31 12:13:32;;;;;;;7.30;2.80;;;29.90;39.60;;;;;;6316129;22;20019;-73
2021/08/31 12:16:02;;;;;;;7.60;2.57;;;31.40;36.70;;;;;;6316308;22;20345;-73
2021/08/31 12:18:31;;;;;;;5.20;2.25;;;30.80;37.00;;;;;;6313957;22;20034;-74
2021/08/31 12:21:16;;;;;;;;;;;30.30;38.00;;;;;;6314968;22;20058;-73
2021/08/31 12:23:45;;;;;;;4.50;2.40;;;31.10;37.20;;;;;;6311199;22;19911;-72
2021/08/31 12:26:35;;;;;;;4.03;2.20;;;32.40;35.50;;;;;;6285716;22;20380;-73
2021/08/31 12:29:08;;;;;;;6.30;2.83;;;32.70;33.60;;;;;;6314224;22;20042;-74
2021/08/31 12:31:36;;;;;;;4.13;2.55;;;31.60;33.80;;;;;;6314092;22;20268;-73
2021/08/31 12:34:20;;;;;;;4.57;2.33;;;30.00;35.90;;;;;;6313545;22;20286;-73
2021/08/31 12:36:49;;;;;;;5.75;2.25;;;28.50;38.00;;;;;;6285750;22;20276;-73
2021/08/31 12:39:25;;;;;;;;;;;28.40;39.10;;;;;;6315305;22;20019;-72
2021/08/31 12:41:57;;;;;;;4.57;2.35;;;28.90;38.10;;;;;;6314005;22;20242;-73
2021/08/31 12:44:24;;;;;;;6.53;2.90;;;29.60;37.80;;;;;;6313623;22;20038;-72
2021/08/31 12:47:07;;;;;;;7.68;2.80;;;30.00;37.20;;;;;;6314266;22;20027;-73
2021/08/31 12:49:37;;;;;;;4.22;2.22;;;29.40;36.60;;;;;;6313753;22;20041;-74
2021/08/31 12:52:15;;;;;;;6.53;2.53;;;28.60;37.90;;;;;;6314004;22;20065;-73
2021/08/31 12:54:44;;;;;;;5.50;2.72;;;29.70;37.90;;;;;;6286201;22;20037;-73
2021/08/31 12:57:12;;;;;;;6.63;2.50;;;30.60;36.50;;;;;;6313989;22;20066;-73
2021/08/31 12:59:42;;;;;;;6.00;2.38;;;29.20;38.50;;;;;;6314344;22;20015;-73
2021/08/31 13:02:12;;;;;;;5.15;2.28;;;28.10;40.90;;;;;;6284161;22;20015;-72
2021/08/31 13:04:41;;;;;;;6.22;2.63;;;27.80;39.90;;;;;;6315690;22;20035;-73